createdAt,value
2022-08-09T00:02:30.119Z,98638.78
2022-08-09T00:07:44.609Z,98642.22
2022-08-09T00:12:47.113Z,98635.50
2022-08-09T00:18:05.284Z,98634.69
2022-08-09T00:23:55.083Z,98640.06
2022-08-09T00:28:35.381Z,98642.50
2022-08-09T00:33:50.479Z,98645.75
2022-08-09T00:38:53.787Z,98635.81
2022-08-09T00:44:10.305Z,98638.94
2022-08-09T00:49:18.066Z,98640.41
2022-08-09T00:54:35.413Z,98636.97
2022-08-09T00:59:46.632Z,98638.88
2022-08-09T01:05:51.579Z,98642.47
2022-08-09T01:11:40.796Z,98640.16
2022-08-09T01:17:19.321Z,98639.00
2022-08-09T01:22:58.304Z,98641.41
2022-08-09T01:28:06.406Z,98646.47
2022-08-09T01:33:13.134Z,98649.66
2022-08-09T01:38:19.012Z,98643.47
2022-08-09T01:43:24.053Z,98651.28
2022-08-09T01:48:29.796Z,98650.81
2022-08-09T01:53:41.628Z,98656.78
2022-08-09T01:58:49.111Z,98654.53
2022-08-09T02:03:54.604Z,98651.69
2022-08-09T02:08:57.879Z,98659.28
2022-08-09T02:14:07.234Z,98662.66
2022-08-09T02:19:10.380Z,98670.34
2022-08-09T02:24:25.723Z,98667.50
2022-08-09T02:29:33.807Z,98675.59
2022-08-09T02:34:41.326Z,98673.28
2022-08-09T02:40:03.469Z,98673.44
2022-08-09T02:45:13.692Z,98681.41
2022-08-09T02:50:24.329Z,98680.38
2022-08-09T02:55:46.441Z,98675.00
2022-08-09T03:00:58.108Z,98676.94
2022-08-09T03:06:02.818Z,98674.97
2022-08-09T03:11:06.502Z,98673.63
2022-08-09T03:16:19.193Z,98665.84
2022-08-09T03:21:25.820Z,98670.41
2022-08-09T03:26:31.917Z,98671.22
2022-08-09T03:31:34.965Z,98682.22
2022-08-09T03:36:58.201Z,98686.69
2022-08-09T03:42:06.415Z,98687.25
2022-08-09T03:47:08.989Z,98687.50
2022-08-09T03:52:11.879Z,98689.94
2022-08-09T03:57:20.397Z,98689.84
2022-08-09T04:02:27.226Z,98693.94
2022-08-09T04:07:47.380Z,98692.28
2022-08-09T04:12:53.998Z,98702.84
2022-08-09T04:17:58.788Z,98701.34
2022-08-09T04:23:01.978Z,98711.38
2022-08-09T04:28:04.581Z,98698.47
2022-08-09T04:33:07.792Z,98705.56
2022-08-09T04:38:09.733Z,98702.41
2022-08-09T04:43:12.128Z,98711.44
2022-08-09T04:48:16.002Z,98721.31
2022-08-09T04:53:17.890Z,98726.94
2022-08-09T04:58:19.796Z,98733.19
2022-08-09T05:03:40.931Z,98734.59
2022-08-09T05:08:48.119Z,98739.72
2022-08-09T05:13:50.274Z,98743.84
2022-08-09T05:18:59.133Z,98748.59
2022-08-09T05:24:05.341Z,98746.03
2022-08-09T05:29:07.486Z,98751.94
2022-08-09T05:34:19.687Z,98757.13
2022-08-09T05:39:28.992Z,98759.75
2022-08-09T05:44:33.052Z,98769.47
2022-08-09T05:50:25.805Z,98767.69
2022-08-09T05:55:06.810Z,98770.97
2022-08-09T06:00:09.779Z,98776.00
2022-08-09T06:05:16.314Z,98771.66
2022-08-09T06:10:18.383Z,98782.75
2022-08-09T06:15:21.282Z,98785.66
2022-08-09T06:20:23.470Z,98792.03
2022-08-09T06:25:26.403Z,98791.75
2022-08-09T06:30:29.074Z,98799.63
2022-08-09T06:35:55.848Z,98793.91
2022-08-09T06:40:55.067Z,98794.22
2022-08-09T06:46:06.708Z,98804.03
2022-08-09T06:51:14.892Z,98817.94
2022-08-09T06:56:18.684Z,98807.53
2022-08-09T07:01:24.039Z,98802.88
2022-08-09T07:06:29.753Z,98807.03
2022-08-09T07:11:34.226Z,98800.06
2022-08-09T07:16:57.880Z,98814.69
2022-08-09T07:22:00.357Z,98823.44
2022-08-09T07:27:04.462Z,98817.53
2022-08-09T07:32:13.165Z,98821.63
2022-08-09T07:37:15.791Z,98816.03
2022-08-09T07:42:17.984Z,98828.56
2022-08-09T07:47:21.040Z,98824.38
2022-08-09T07:52:30.110Z,98823.13
2022-08-09T07:57:36.069Z,98815.16
2022-08-09T08:02:42.226Z,98813.28
2022-08-09T08:08:43.540Z,98815.09
2022-08-09T08:13:06.579Z,98816.31
2022-08-09T08:18:14.497Z,98809.59
2022-08-09T08:23:18.658Z,98807.19
2022-08-09T08:28:32.374Z,98812.13
2022-08-09T08:33:49.512Z,98817.09
2022-08-09T08:38:56.956Z,98815.25
2022-08-09T08:44:02.717Z,98816.84
2022-08-09T08:49:07.555Z,98810.69
2022-08-09T08:54:20.203Z,98808.69
2022-08-09T08:59:40.947Z,98810.88
2022-08-09T09:04:52.915Z,98811.88
2022-08-09T09:10:01.940Z,98802.50
2022-08-09T09:15:07.193Z,98813.13
2022-08-09T09:20:10.818Z,98816.13
2022-08-09T09:26:00.964Z,98807.88
2022-08-09T09:31:06.087Z,98805.88
2022-08-09T09:36:20.282Z,98798.22
2022-08-09T09:41:22.889Z,98806.19
2022-08-09T09:46:51.998Z,98809.78
2022-08-09T09:52:04.820Z,98808.59
2022-08-09T09:58:04.218Z,98794.97
2022-08-09T10:02:56.083Z,98801.16
2022-08-09T10:08:27.106Z,98805.13
2022-08-09T10:13:44.985Z,98802.59
2022-08-09T10:18:54.415Z,98794.56
2022-08-09T10:24:00.578Z,98798.69
2022-08-09T10:29:36.099Z,98794.44
2022-08-09T10:34:32.688Z,98793.66
2022-08-09T10:39:40.717Z,98790.44
2022-08-09T10:45:10.641Z,98787.06
2022-08-09T10:51:06.716Z,98784.88
2022-08-09T10:56:22.605Z,98796.34
2022-08-09T11:03:11.613Z,98792.81
2022-08-09T11:07:01.154Z,98788.34
2022-08-09T11:12:20.193Z,98780.44
2022-08-09T11:17:22.265Z,98784.63
2022-08-09T11:22:55.644Z,98780.34
2022-08-09T11:28:08.008Z,98783.16
2022-08-09T11:33:21.563Z,98776.94
2022-08-09T11:38:33.061Z,98783.28
2022-08-09T11:43:35.823Z,98789.19
2022-08-09T11:48:57.712Z,98787.53
2022-08-09T11:54:28.264Z,98783.63
2022-08-09T11:59:35.335Z,98776.75
2022-08-09T12:04:40.549Z,98771.09
2022-08-09T12:09:50.494Z,98754.38
2022-08-09T12:15:08.519Z,98758.00
2022-08-09T12:20:22.852Z,98767.88
2022-08-09T12:25:37.614Z,98767.97
2022-08-09T12:30:40.545Z,98760.72
2022-08-09T12:35:43.134Z,98754.84
2022-08-09T12:40:48.181Z,98749.06
2022-08-09T12:46:00.233Z,98742.66
2022-08-09T12:51:04.286Z,98746.03
2022-08-09T12:56:43.185Z,98751.19
2022-08-09T13:02:07.267Z,98762.13
2022-08-09T13:07:19.547Z,98755.88
2022-08-09T13:12:22.103Z,98751.41
2022-08-09T13:18:02.655Z,98751.16
2022-08-09T13:23:01.134Z,98751.84
2022-08-09T13:28:18.764Z,98755.53
2022-08-09T13:33:52.273Z,98753.59
2022-08-09T13:38:55.624Z,98750.53
2022-08-09T13:44:00.888Z,98755.41
2022-08-09T13:49:07.347Z,98745.13
2022-08-09T13:54:20.462Z,98749.16
2022-08-09T13:59:27.687Z,98732.97
2022-08-09T14:04:59.816Z,98732.81
2022-08-09T14:10:02.522Z,98734.00
2022-08-09T14:15:06.932Z,98728.06
2022-08-09T14:20:29.240Z,98734.75
2022-08-09T14:25:31.321Z,98744.25
2022-08-09T14:30:44.920Z,98751.50
2022-08-09T14:35:52.742Z,98749.97
2022-08-09T14:41:02.252Z,98754.78
2022-08-09T14:46:54.413Z,98740.94
2022-08-09T14:51:42.438Z,98736.31
2022-08-09T14:56:58.246Z,98738.06
2022-08-09T15:02:01.174Z,98731.16
2022-08-09T15:07:04.629Z,98721.09
2022-08-09T15:12:11.934Z,98729.16
2022-08-09T15:17:13.726Z,98724.38
2022-08-09T15:22:18.016Z,98716.28
2022-08-09T15:27:23.879Z,98703.16
2022-08-09T15:32:39.546Z,98701.00
2022-08-09T15:37:56.590Z,98711.72
2022-08-09T15:43:14.292Z,98708.84
2022-08-09T15:48:29.446Z,98712.03
2022-08-09T15:54:05.384Z,98708.66
2022-08-09T15:58:54.069Z,98712.78
2022-08-09T16:03:56.035Z,98695.25
2022-08-09T16:09:01.003Z,98689.72
2022-08-09T16:14:08.063Z,98681.41
2022-08-09T16:19:13.523Z,98682.50
2022-08-09T16:24:33.732Z,98677.59
2022-08-09T16:29:37.579Z,98673.69
2022-08-09T16:34:55.352Z,98677.41
2022-08-09T16:40:05.282Z,98683.13
2022-08-09T16:45:08.659Z,98687.56
2022-08-09T16:50:31.208Z,98681.09
2022-08-09T16:55:58.821Z,98687.47
2022-08-09T17:00:54.928Z,98685.81
2022-08-09T17:06:07.581Z,98686.63
2022-08-09T17:11:19.521Z,98684.13
2022-08-09T17:16:38.282Z,98683.28
2022-08-09T17:21:40.167Z,98681.38
2022-08-09T17:26:41.789Z,98684.84
2022-08-09T17:31:49.609Z,98688.84
2022-08-09T17:36:53.379Z,98685.53
2022-08-09T17:41:55.633Z,98681.06
2022-08-09T17:47:04.018Z,98687.41
2022-08-09T17:52:07.312Z,98693.47
2022-08-09T17:58:02.417Z,98694.56
2022-08-09T18:02:58.051Z,98694.47
2022-08-09T18:08:00.400Z,98697.66
2022-08-09T18:13:39.115Z,98698.63
2022-08-09T18:18:32.903Z,98705.84
2022-08-09T18:24:11.634Z,98705.28
2022-08-09T18:30:42.992Z,98701.84
2022-08-09T18:34:20.277Z,98710.91
2022-08-09T18:39:31.895Z,98710.72
2022-08-09T18:44:34.493Z,98711.06
2022-08-09T18:49:43.690Z,98724.34
2022-08-09T18:54:49.666Z,98733.16
2022-08-09T19:00:01.501Z,98741.66
2022-08-09T19:05:20.372Z,98748.75
2022-08-09T19:10:29.361Z,98749.31
2022-08-09T19:15:39.105Z,98754.22
2022-08-09T19:20:40.895Z,98754.03
2022-08-09T19:26:02.194Z,98754.88
2022-08-09T19:31:07.660Z,98753.88
2022-08-09T19:36:11.775Z,98764.38
2022-08-09T19:41:32.675Z,98767.19
2022-08-09T19:46:50.894Z,98767.53
2022-08-09T19:51:57.021Z,98772.13
2022-08-09T19:56:59.097Z,98770.22
2022-08-09T20:02:04.716Z,98774.72
2022-08-09T20:07:20.936Z,98776.69
2022-08-09T20:12:27.460Z,98773.16
2022-08-09T20:17:48.321Z,98778.38
2022-08-09T20:22:56.530Z,98778.75
2022-08-09T20:27:58.328Z,98786.34
2022-08-09T20:33:02.137Z,98782.19
2022-08-09T20:38:23.529Z,98783.00
2022-08-09T20:43:29.770Z,98783.28
2022-08-09T20:48:31.941Z,98776.44
2022-08-09T20:53:35.342Z,98782.81
2022-08-09T20:58:43.523Z,98792.59
2022-08-09T21:05:48.481Z,98786.28
2022-08-09T21:09:13.554Z,98791.63
2022-08-09T21:14:16.735Z,98794.53
2022-08-09T21:20:18.006Z,98788.31
2022-08-09T21:25:01.140Z,98794.03
2022-08-09T21:30:02.805Z,98795.84
2022-08-09T21:35:04.626Z,98789.25
2022-08-09T21:40:10.703Z,98794.84
2022-08-09T21:45:17.395Z,98791.47
2022-08-09T21:50:22.935Z,98804.19
2022-08-09T21:55:35.614Z,98803.34
2022-08-09T22:00:37.292Z,98796.38
2022-08-09T22:05:42.202Z,98797.91
2022-08-09T22:11:00.382Z,98801.38
2022-08-09T22:16:09.258Z,98805.06
2022-08-09T22:21:21.992Z,98802.38
2022-08-09T22:26:35.622Z,98799.19
2022-08-09T22:31:50.236Z,98807.91
2022-08-09T22:36:59.271Z,98809.47
2022-08-09T22:42:00.907Z,98806.41
2022-08-09T22:48:12.976Z,98806.47
2022-08-09T22:52:24.165Z,98799.94
2022-08-09T22:57:35.439Z,98808.31
2022-08-09T23:02:37.510Z,98802.75
2022-08-09T23:08:22.758Z,98804.25
2022-08-09T23:13:26.680Z,98798.41
2022-08-09T23:18:28.286Z,98806.09
2022-08-09T23:23:29.919Z,98796.50
2022-08-09T23:28:31.585Z,98794.22
2022-08-09T23:33:33.294Z,98792.28
2022-08-09T23:38:36.031Z,98786.25
2022-08-09T23:43:50.951Z,98783.16
2022-08-09T23:48:58.099Z,98793.47
2022-08-09T23:54:02.741Z,98781.09
2022-08-09T23:59:05.010Z,98782.72
